Hadley, Pennsylvania
Current Conditions -  °F | °C
As of 9:04 AM on Thursday 30 Oct 2014 (Local Time) from KGKJ Reporting Station
Light Rain Light Rain  
Wind Chill: 43°   Ceiling: 1600
Heat Index: 43°   Visibility: 3mi
Dew Point: 40°   Wind: 0mph
Humidity: 89%   Direction: NA
Pressure: 30.08"   Gusts: NA
Location:  41.41°N, 80.23°W
Report Text: KGKJ 301304Z AUTO 00000KT 3SM -RA BR BKN016 OVC022 06/04 A3008 RMK AO2 P0000 T00610044 TSNO
Loading
Personal Weather Stations






























Interactive Weather Map
Tropical Storm Tracking
New forecast layout! Learn more

10-Day Weather Forecast

Advertisements
Track Severe Weather on mobile